Portada
METAR-TAF:

METAR-TAF

Aeroports :

Aeroport de Jiddah Rei Abdulaziz

Jiddah, Aràbia Saudita

latitud: 21-42N, longitud: 039-11E, altitud: 15 m

Observació

L'informe es va fer fa 27 minuts, a les 17:00 UTC
Vent 18 kt del Nord-Oest
Temperatura 22°C
Humitat 31%
Pressió 1019 hPa
Visibilitat 10 km o més
sense núvols per sota de 1500 mi sense presència de cumulonimbus.

METAR: OEJN 261700Z 32018KT CAVOK 22/04 Q1019 NOSIG

Hora: 20:27 (17:27 UTC)

Pronòstic

L'informe es va fer fa 6 hores i 27 minuts, a les 11:00 UTC
Pronòstic vàlid del 26 a les 12 UTC al 27 a les 18 UTC
Vent 15 kt del Nord/Nord-Est
Visibilitat: 7000 m
Temporalment
l' 26 a les 12 UTC al 26 a les 16 UTC
Visibilitat: 4000 m
torb alta de pols
Evolucionant progressivament
l' 26 a les 20 UTC al 26 a les 22 UTC
Vent 8 kt del Est amb ràfegues de 18 kt

TAF: OEJN 261100Z 2612/2718 03015KT 7000 NSC TEMPO 2612/2616 4000 BLDU BECMG 2620/2622 09008G18KT

Observacions i pronòstics meteorològics de més de 4000 aeroports (METAR i TAF).

Les estacions disponibles són els punts grocs i vermells al mapa.

Posi el ratolí al punt desitjat per veure el nom de l'estació.

Feu clic per veure les observacions i els pronòstics meteorològics.

Per canviar el mapa: feu clic els botons verds amb una creu de color negre per apropar; al botó verd amb un guió per allunyar la imatge; o en les fletxes verdes per a mapes adjacents.


METAR-TAF: